Time,TemperatureF,DewpointF,PressureIn,WindDirection,WindDirectionDegrees,WindSpeedMPH,WindSpeedGustMPH,Humidity,HourlyPrecipIn,Conditions,Clouds,dailyrainin,SoftwareType,DateUTC
2013-02-16 00:01:00,29.9,28.1,30.08,NNW,348,2.0,3.0,93,0.00,,,0.02,Wunderground v.1.15,2013-02-16 05:01:00,
2013-02-16 00:04:00,29.8,28.0,30.08,NNW,337,3.0,6.0,93,0.00,,,0.00,Wunderground v.1.15,2013-02-16 05:04:00,
2013-02-16 00:06:00,29.8,28.0,30.08,NNW,333,3.0,6.0,93,0.00,,,0.00,Wunderground v.1.15,2013-02-16 05:06:00,
2013-02-16 00:11:00,29.6,27.6,30.08,NW,316,3.0,6.0,92,0.00,,,0.00,Wunderground v.1.15,2013-02-16 05:11:00,
2013-02-16 00:17:00,29.4,27.4,30.08,NW,320,4.0,6.0,92,0.00,,,0.00,Wunderground v.1.15,2013-02-16 05:17:00,
2013-02-16 00:22:00,29.3,27.3,30.08,NNW,330,3.0,4.0,92,0.00,,,0.00,Wunderground v.1.15,2013-02-16 05:22:00,
2013-02-16 00:26:00,29.2,27.2,30.08,NNW,328,3.0,4.0,92,0.00,,,0.00,Wunderground v.1.15,2013-02-16 05:26:00,
2013-02-16 00:31:00,29.0,27.0,30.08,WNW,301,3.0,5.0,92,0.00,,,0.00,Wunderground v.1.15,2013-02-16 05:31:00,
2013-02-16 00:36:00,28.9,26.9,30.08,NW,317,3.0,5.0,92,0.00,,,0.00,Wunderground v.1.15,2013-02-16 05:36:00,
2013-02-16 00:41:00,28.6,26.0,30.08,NW,316,3.0,5.0,90,0.00,,,0.00,Wunderground v.1.15,2013-02-16 05:41:00,
2013-02-16 00:46:00,28.3,25.5,30.09,NW,307,4.0,6.0,89,0.00,,,0.00,Wunderground v.1.15,2013-02-16 05:46:00,
2013-02-16 00:51:00,28.1,24.7,30.08,NW,321,4.0,5.0,87,0.00,,,0.00,Wunderground v.1.15,2013-02-16 05:51:00,
2013-02-16 00:57:00,27.9,24.5,30.08,NW,315,4.0,5.0,87,0.00,,,0.00,Wunderground v.1.15,2013-02-16 05:57:00,
2013-02-16 01:02:00,27.8,24.4,30.08,NNW,342,4.0,7.0,87,0.00,,,0.00,Wunderground v.1.15,2013-02-16 06:02:00,
2013-02-16 01:08:00,27.8,24.4,30.08,NW,320,4.0,7.0,87,0.00,,,0.00,Wunderground v.1.15,2013-02-16 06:08:00,
2013-02-16 01:13:00,27.7,24.3,30.08,NW,304,3.0,4.0,87,0.00,,,0.00,Wunderground v.1.15,2013-02-16 06:13:00,
2013-02-16 01:18:00,27.6,24.2,30.08,NW,312,3.0,5.0,87,0.00,,,0.00,Wunderground v.1.15,2013-02-16 06:18:00,
2013-02-16 01:23:00,27.5,24.1,30.09,NW,319,3.0,4.0,87,0.00,,,0.00,Wunderground v.1.15,2013-02-16 06:23:00,
2013-02-16 01:28:00,27.3,23.9,30.09,NNW,338,3.0,4.0,87,0.00,,,0.00,Wunderground v.1.15,2013-02-16 06:28:00,
2013-02-16 01:33:00,27.2,23.8,30.08,NW,313,3.0,9.0,87,0.00,,,0.00,Wunderground v.1.15,2013-02-16 06:33:00,
2013-02-16 01:38:00,27.0,23.6,30.08,NW,319,4.0,9.0,87,0.00,,,0.00,Wunderground v.1.15,2013-02-16 06:38:00,
2013-02-16 01:43:00,26.9,23.5,30.09,NNW,329,4.0,9.0,87,0.00,,,0.00,Wunderground v.1.15,2013-02-16 06:43:00,
2013-02-16 01:48:00,26.6,23.3,30.08,NW,315,4.0,9.0,87,0.00,,,0.00,Wunderground v.1.15,2013-02-16 06:48:00,
2013-02-16 01:54:00,26.5,23.4,30.08,NW,314,3.0,9.0,88,0.00,,,0.00,Wunderground v.1.15,2013-02-16 06:54:00,
2013-02-16 01:59:00,26.3,23.5,30.08,NW,304,3.0,9.0,89,0.00,,,0.00,Wunderground v.1.15,2013-02-16 06:59:00,
2013-02-16 02:05:00,26.2,23.4,30.08,NW,304,2.0,3.0,89,0.00,,,0.00,Wunderground v.1.15,2013-02-16 07:05:00,
2013-02-16 02:11:00,26.2,23.4,30.08,NW,304,1.0,2.0,89,0.00,,,0.00,Wunderground v.1.15,2013-02-16 07:11:00,
2013-02-16 02:16:00,26.1,23.6,30.08,NW,304,1.0,3.0,90,0.00,,,0.00,Wunderground v.1.15,2013-02-16 07:16:00,
2013-02-16 02:22:00,26.0,23.5,30.08,NW,323,2.0,3.0,90,0.00,,,0.00,Wunderground v.1.15,2013-02-16 07:22:00,
2013-02-16 02:27:00,26.0,23.5,30.08,NNW,334,3.0,4.0,90,0.00,,,0.00,Wunderground v.1.15,2013-02-16 07:27:00,
2013-02-16 02:33:00,25.9,23.1,30.08,NW,322,2.0,7.0,89,0.00,,,0.00,Wunderground v.1.15,2013-02-16 07:33:00,
2013-02-16 02:38:00,25.9,23.1,30.08,NW,319,2.0,7.0,89,0.00,,,0.00,Wunderground v.1.15,2013-02-16 07:38:00,
2013-02-16 02:43:00,25.9,23.1,30.08,NW,317,2.0,7.0,89,0.00,,,0.00,Wunderground v.1.15,2013-02-16 07:43:00,
2013-02-16 02:48:00,25.9,22.8,30.07,NNW,331,2.0,7.0,88,0.00,,,0.00,Wunderground v.1.15,2013-02-16 07:48:00,
2013-02-16 02:53:00,25.9,22.8,30.07,NW,317,3.0,7.0,88,0.00,,,0.00,Wunderground v.1.15,2013-02-16 07:53:00,
2013-02-16 02:58:00,25.9,22.8,30.07,NW,317,3.0,7.0,88,0.00,,,0.00,Wunderground v.1.15,2013-02-16 07:58:00,
2013-02-16 03:03:00,25.8,22.7,30.07,NW,307,2.0,3.0,88,0.00,,,0.00,Wunderground v.1.15,2013-02-16 08:03:00,
2013-02-16 03:10:00,25.8,23.0,30.07,NW,308,2.0,2.0,89,0.00,,,0.00,Wunderground v.1.15,2013-02-16 08:10:00,
2013-02-16 03:15:00,25.8,23.0,30.07,NW,308,1.0,2.0,89,0.00,,,0.00,Wunderground v.1.15,2013-02-16 08:15:00,
2013-02-16 03:20:00,25.8,23.0,30.07,NW,323,2.0,2.0,89,0.00,,,0.00,Wunderground v.1.15,2013-02-16 08:20:00,
2013-02-16 03:25:00,25.7,22.9,30.07,NW,324,2.0,2.0,89,0.00,,,0.00,Wunderground v.1.15,2013-02-16 08:25:00,
2013-02-16 03:31:00,25.7,22.9,30.07,NW,323,1.0,3.0,89,0.00,,,0.00,Wunderground v.1.15,2013-02-16 08:31:00,
2013-02-16 03:36:00,25.7,22.9,30.07,NNW,332,2.0,3.0,89,0.00,,,0.00,Wunderground v.1.15,2013-02-16 08:36:00,
2013-02-16 03:42:00,25.7,23.2,30.07,NW,304,2.0,3.0,90,0.00,,,0.00,Wunderground v.1.15,2013-02-16 08:42:00,
2013-02-16 03:47:00,25.6,23.1,30.06,NW,311,2.0,4.0,90,0.00,,,0.00,Wunderground v.1.15,2013-02-16 08:47:00,
2013-02-16 03:52:00,25.6,23.1,30.06,NW,320,3.0,5.0,90,0.00,,,0.00,Wunderground v.1.15,2013-02-16 08:52:00,
2013-02-16 03:57:00,25.5,23.0,30.07,WSW,257,2.0,5.0,90,0.00,,,0.00,Wunderground v.1.15,2013-02-16 08:57:00,
2013-02-16 04:03:00,25.5,23.0,30.07,WNW,292,1.0,2.0,90,0.00,,,0.00,Wunderground v.1.15,2013-02-16 09:03:00,
2013-02-16 04:08:00,25.4,22.9,30.07,NW,321,1.0,5.0,90,0.00,,,0.00,Wunderground v.1.15,2013-02-16 09:08:00,
2013-02-16 04:14:00,25.3,22.8,30.07,NNW,329,2.0,4.0,90,0.00,,,0.00,Wunderground v.1.15,2013-02-16 09:14:00,
2013-02-16 04:19:00,25.2,22.4,30.07,NNW,329,2.0,4.0,89,0.00,,,0.00,Wunderground v.1.15,2013-02-16 09:19:00,
2013-02-16 04:25:00,25.2,22.4,30.07,NNW,329,1.0,2.0,89,0.00,,,0.00,Wunderground v.1.15,2013-02-16 09:25:00,
2013-02-16 04:30:00,25.2,22.4,30.07,NNW,329,1.0,3.0,89,0.00,,,0.00,Wunderground v.1.15,2013-02-16 09:30:00,
2013-02-16 04:36:00,25.1,22.3,30.07,NNW,329,1.0,5.0,89,0.00,,,0.00,Wunderground v.1.15,2013-02-16 09:36:00,
2013-02-16 04:41:00,25.1,22.3,30.07,NNW,329,0.0,5.0,89,0.00,,,0.00,Wunderground v.1.15,2013-02-16 09:41:00,
2013-02-16 04:46:00,25.0,22.2,30.07,NNW,329,0.0,5.0,89,0.00,,,0.00,Wunderground v.1.15,2013-02-16 09:46:00,
2013-02-16 04:52:00,25.0,22.2,30.08,NNW,329,1.0,5.0,89,0.00,,,0.00,Wunderground v.1.15,2013-02-16 09:52:00,
2013-02-16 04:57:00,24.9,22.1,30.07,NNW,329,1.0,5.0,89,0.00,,,0.00,Wunderground v.1.15,2013-02-16 09:57:00,
2013-02-16 05:02:00,24.8,22.0,30.07,NNW,329,1.0,2.0,89,0.00,,,0.00,Wunderground v.1.15,2013-02-16 10:02:00,
2013-02-16 05:08:00,24.7,21.9,30.07,NNW,329,1.0,3.0,89,0.00,,,0.00,Wunderground v.1.15,2013-02-16 10:08:00,
2013-02-16 05:13:00,24.5,21.7,30.07,NNW,329,1.0,2.0,89,0.00,,,0.00,Wunderground v.1.15,2013-02-16 10:13:00,
2013-02-16 05:18:00,24.3,21.3,30.07,NNW,329,1.0,1.0,88,0.00,,,0.00,Wunderground v.1.15,2013-02-16 10:18:00,
2013-02-16 05:24:00,23.9,20.9,30.07,NNW,329,1.0,2.0,88,0.00,,,0.00,Wunderground v.1.15,2013-02-16 10:24:00,
2013-02-16 05:30:00,23.5,20.5,30.07,NNW,329,1.0,1.0,88,0.00,,,0.00,Wunderground v.1.15,2013-02-16 10:30:00,
2013-02-16 05:35:00,23.2,20.4,30.07,NNW,329,0.0,1.0,89,0.00,,,0.00,Wunderground v.1.15,2013-02-16 10:35:00,
2013-02-16 05:40:00,23.0,20.0,30.07,NNW,329,0.0,0.0,88,0.00,,,0.00,Wunderground v.1.15,2013-02-16 10:40:00,
2013-02-16 05:46:00,22.6,19.6,30.07,NNW,329,0.0,0.0,88,0.00,,,0.00,Wunderground v.1.15,2013-02-16 10:46:00,
2013-02-16 05:51:00,22.3,19.3,30.07,NNW,329,0.0,0.0,88,0.00,,,0.00,Wunderground v.1.15,2013-02-16 10:51:00,
2013-02-16 05:56:00,21.9,18.9,30.07,NNW,329,0.0,0.0,88,0.00,,,0.00,Wunderground v.1.15,2013-02-16 10:56:00,
2013-02-16 06:01:00,21.5,18.5,30.07,NNW,329,0.0,0.0,88,0.00,,,0.00,Wunderground v.1.15,2013-02-16 11:01:00,
2013-02-16 06:06:00,21.1,18.1,30.07,NNW,329,0.0,0.0,88,0.00,,,0.00,Wunderground v.1.15,2013-02-16 11:06:00,
2013-02-16 06:11:00,20.6,17.9,30.07,NNW,329,0.0,0.0,89,0.00,,,0.00,Wunderground v.1.15,2013-02-16 11:11:00,
2013-02-16 06:16:00,20.2,17.5,30.07,NNW,329,0.0,0.0,89,0.00,,,0.00,Wunderground v.1.15,2013-02-16 11:16:00,
2013-02-16 06:21:00,20.1,17.4,30.07,NNW,329,0.0,0.0,89,0.00,,,0.00,Wunderground v.1.15,2013-02-16 11:21:00,
2013-02-16 06:27:00,20.0,17.5,30.07,NNW,329,0.0,0.0,90,0.00,,,0.00,Wunderground v.1.15,2013-02-16 11:27:00,
2013-02-16 06:33:00,20.0,17.8,30.07,NNW,329,0.0,3.0,91,0.00,,,0.00,Wunderground v.1.15,2013-02-16 11:33:00,
2013-02-16 06:38:00,20.0,17.8,30.07,NNW,329,0.0,0.0,91,0.00,,,0.00,Wunderground v.1.15,2013-02-16 11:38:00,
2013-02-16 06:44:00,20.2,18.2,30.07,NNW,329,0.0,0.0,92,0.00,,,0.00,Wunderground v.1.15,2013-02-16 11:44:00,
2013-02-16 06:50:00,20.3,18.3,30.07,NNW,329,0.0,0.0,92,0.00,,,0.00,Wunderground v.1.15,2013-02-16 11:50:00,
2013-02-16 06:55:00,20.5,18.5,30.07,NNW,329,0.0,0.0,92,0.00,,,0.00,Wunderground v.1.15,2013-02-16 11:55:00,
2013-02-16 07:00:00,20.7,19.0,30.07,NNW,329,0.0,0.0,93,0.00,,,0.00,Wunderground v.1.15,2013-02-16 12:00:00,
2013-02-16 07:06:00,20.8,19.1,30.07,NNW,329,0.0,0.0,93,0.00,,,0.00,Wunderground v.1.15,2013-02-16 12:06:00,
2013-02-16 07:11:00,20.9,19.2,30.07,NNW,329,0.0,0.0,93,0.00,,,0.00,Wunderground v.1.15,2013-02-16 12:11:00,
2013-02-16 07:16:00,21.0,19.3,30.07,NNW,329,0.0,0.0,93,0.00,,,0.00,Wunderground v.1.15,2013-02-16 12:16:00,
2013-02-16 07:22:00,21.3,19.8,30.07,NNW,329,0.0,0.0,94,0.00,,,0.00,Wunderground v.1.15,2013-02-16 12:22:00,
2013-02-16 07:28:00,21.5,20.0,30.07,NNW,329,0.0,0.0,94,0.00,,,0.00,Wunderground v.1.15,2013-02-16 12:28:00,
2013-02-16 07:33:00,21.7,20.2,30.08,NNW,329,0.0,0.0,94,0.00,,,0.00,Wunderground v.1.15,2013-02-16 12:33:00,
2013-02-16 07:38:00,21.9,20.4,30.08,NNW,329,0.0,0.0,94,0.00,,,0.00,Wunderground v.1.15,2013-02-16 12:38:00,
2013-02-16 07:43:00,22.0,20.5,30.07,NNW,329,0.0,0.0,94,0.00,,,0.00,Wunderground v.1.15,2013-02-16 12:43:00,
2013-02-16 07:48:00,22.1,20.6,30.07,NNW,329,0.0,1.0,94,0.00,,,0.00,Wunderground v.1.15,2013-02-16 12:48:00,
2013-02-16 07:53:00,22.2,20.7,30.08,NNW,329,0.0,0.0,94,0.00,,,0.00,Wunderground v.1.15,2013-02-16 12:53:00,
2013-02-16 07:58:00,22.2,20.7,30.08,NNW,329,0.0,0.0,94,0.00,,,0.00,Wunderground v.1.15,2013-02-16 12:58:00,
2013-02-16 08:04:00,22.2,20.5,30.08,NNW,329,0.0,0.0,93,0.00,,,0.00,Wunderground v.1.15,2013-02-16 13:04:00,
2013-02-16 08:10:00,22.1,20.4,30.08,NNW,329,0.0,0.0,93,0.00,,,0.00,Wunderground v.1.15,2013-02-16 13:10:00,
2013-02-16 08:15:00,22.1,20.4,30.08,NNW,329,0.0,0.0,93,0.00,,,0.00,Wunderground v.1.15,2013-02-16 13:15:00,
2013-02-16 08:20:00,22.0,20.0,30.08,NNW,329,0.0,0.0,92,0.00,,,0.00,Wunderground v.1.15,2013-02-16 13:20:00,
2013-02-16 08:26:00,22.0,20.0,30.08,NNW,329,0.0,0.0,92,0.00,,,0.00,Wunderground v.1.15,2013-02-16 13:26:00,
2013-02-16 08:31:00,22.1,20.1,30.08,NNW,329,0.0,0.0,92,0.00,,,0.00,Wunderground v.1.15,2013-02-16 13:31:00,
2013-02-16 08:37:00,22.3,20.3,30.08,NNW,329,0.0,1.0,92,0.00,,,0.00,Wunderground v.1.15,2013-02-16 13:37:00,
2013-02-16 08:42:00,22.6,20.4,30.07,NNW,329,0.0,1.0,91,0.00,,,0.00,Wunderground v.1.15,2013-02-16 13:42:00,
2013-02-16 08:47:00,22.9,20.7,30.07,NNW,329,0.0,2.0,91,0.00,,,0.00,Wunderground v.1.15,2013-02-16 13:47:00,
2013-02-16 08:52:00,23.3,20.5,30.07,NNW,329,0.0,1.0,89,0.00,,,0.00,Wunderground v.1.15,2013-02-16 13:52:00,
2013-02-16 08:57:00,23.8,20.8,30.07,NNW,329,1.0,2.0,88,0.00,,,0.00,Wunderground v.1.15,2013-02-16 13:57:00,
2013-02-16 09:02:00,24.8,20.4,30.07,NNW,329,1.0,2.0,83,0.00,,,0.00,Wunderground v.1.15,2013-02-16 14:02:00,
2013-02-16 09:07:00,25.3,19.7,30.06,NNW,329,0.0,2.0,79,0.00,,,0.00,Wunderground v.1.15,2013-02-16 14:07:00,
2013-02-16 09:12:00,25.5,19.3,30.06,NNW,329,1.0,2.0,77,0.00,,,0.00,Wunderground v.1.15,2013-02-16 14:12:00,
2013-02-16 09:17:00,25.8,19.0,30.07,NNW,327,2.0,5.0,75,0.00,,,0.00,Wunderground v.1.15,2013-02-16 14:17:00,
2013-02-16 09:22:00,26.0,19.2,30.07,NNW,327,3.0,5.0,75,0.00,,,0.00,Wunderground v.1.15,2013-02-16 14:22:00,
2013-02-16 09:27:00,26.0,18.8,30.07,WSW,250,2.0,5.0,74,0.00,,,0.00,Wunderground v.1.15,2013-02-16 14:27:00,
2013-02-16 09:32:00,26.2,19.7,30.06,WSW,250,1.0,1.0,76,0.00,,,0.00,Wunderground v.1.15,2013-02-16 14:32:00,
2013-02-16 09:38:00,26.2,19.0,30.06,WNW,303,1.0,3.0,74,0.00,,,0.00,Wunderground v.1.15,2013-02-16 14:38:00,
2013-02-16 09:45:00,26.3,18.8,30.06,WNW,303,2.0,3.0,73,0.00,,,0.00,Wunderground v.1.15,2013-02-16 14:45:00,
2013-02-16 09:51:00,26.5,19.0,30.07,WNW,303,1.0,1.0,73,0.00,,,0.00,Wunderground v.1.15,2013-02-16 14:51:00,
2013-02-16 09:56:00,26.8,18.7,30.07,WNW,303,1.0,4.0,71,0.00,,,0.00,Wunderground v.1.15,2013-02-16 14:56:00,
2013-02-16 10:02:00,26.9,18.4,30.06,NW,305,2.0,2.0,70,0.00,,,0.00,Wunderground v.1.15,2013-02-16 15:02:00,
2013-02-16 10:07:00,27.4,18.9,30.06,NNW,340,2.0,4.0,70,0.00,,,0.00,Wunderground v.1.15,2013-02-16 15:07:00,
2013-02-16 10:12:00,27.4,18.6,30.06,NW,314,3.0,3.0,69,0.00,,,0.00,Wunderground v.1.15,2013-02-16 15:12:00,
2013-02-16 10:17:00,27.6,19.4,30.06,NNW,342,2.0,4.0,71,0.00,,,0.00,Wunderground v.1.15,2013-02-16 15:17:00,
2013-02-16 10:23:00,27.8,18.9,30.06,NW,315,3.0,4.0,69,0.00,,,0.00,Wunderground v.1.15,2013-02-16 15:23:00,
2013-02-16 10:28:00,27.5,18.7,30.06,North,5,3.0,5.0,69,0.00,,,0.00,Wunderground v.1.15,2013-02-16 15:28:00,
2013-02-16 10:33:00,27.3,18.8,30.06,North,360,3.0,5.0,70,0.00,,,0.00,Wunderground v.1.15,2013-02-16 15:33:00,
2013-02-16 10:38:00,27.3,18.5,30.05,NW,319,2.0,5.0,69,0.00,,,0.00,Wunderground v.1.15,2013-02-16 15:38:00,
2013-02-16 10:44:00,27.2,18.7,30.05,NNW,329,3.0,5.0,70,0.00,,,0.00,Wunderground v.1.15,2013-02-16 15:44:00,
2013-02-16 10:50:00,27.1,18.6,30.05,NW,326,3.0,3.0,70,0.00,,,0.00,Wunderground v.1.15,2013-02-16 15:50:00,
2013-02-16 10:55:00,27.2,18.7,30.05,NNW,327,2.0,5.0,70,0.00,,,0.00,Wunderground v.1.15,2013-02-16 15:55:00,
2013-02-16 11:02:00,27.2,18.7,30.05,NNW,327,1.0,2.0,70,0.00,,,0.00,Wunderground v.1.15,2013-02-16 16:02:00,
2013-02-16 11:08:00,27.3,18.1,30.05,NNW,327,1.0,1.0,68,0.00,,,0.00,Wunderground v.1.15,2013-02-16 16:08:00,
2013-02-16 11:13:00,27.6,19.1,30.05,NW,321,2.0,5.0,70,0.00,,,0.00,Wunderground v.1.15,2013-02-16 16:13:00,
2013-02-16 11:18:00,27.7,19.5,30.04,NW,325,3.0,3.0,71,0.00,,,0.00,Wunderground v.1.15,2013-02-16 16:18:00,
2013-02-16 11:23:00,28.1,19.2,30.04,NW,326,2.0,3.0,69,0.00,,,0.00,Wunderground v.1.15,2013-02-16 16:23:00,
2013-02-16 11:28:00,28.1,19.6,30.04,SSE,156,1.0,4.0,70,0.00,,,0.00,Wunderground v.1.15,2013-02-16 16:28:00,
2013-02-16 11:34:00,29.0,20.4,30.04,SSE,168,1.0,2.0,70,0.00,,,0.00,Wunderground v.1.15,2013-02-16 16:34:00,
2013-02-16 11:40:00,28.8,20.6,30.04,NNW,341,1.0,4.0,71,0.00,,,0.00,Wunderground v.1.15,2013-02-16 16:40:00,
2013-02-16 11:45:00,29.5,21.3,30.03,NNW,340,1.0,2.0,71,0.00,,,0.00,Wunderground v.1.15,2013-02-16 16:45:00,
2013-02-16 11:51:00,29.3,20.4,30.03,NW,307,2.0,4.0,69,0.00,,,0.00,Wunderground v.1.15,2013-02-16 16:51:00,
2013-02-16 11:56:00,28.7,19.8,30.03,NNW,327,3.0,4.0,69,0.00,,,0.00,Wunderground v.1.15,2013-02-16 16:56:00,
2013-02-16 12:02:00,28.6,19.7,30.03,NW,318,2.0,3.0,69,0.00,,,0.00,Wunderground v.1.15,2013-02-16 17:02:00,
2013-02-16 12:07:00,28.5,19.6,30.03,NNW,327,2.0,5.0,69,0.00,,,0.00,Wunderground v.1.15,2013-02-16 17:07:00,
2013-02-16 12:12:00,29.0,20.8,30.03,NW,326,2.0,3.0,71,0.00,,,0.00,Wunderground v.1.15,2013-02-16 17:12:00,
2013-02-16 12:18:00,29.4,20.1,30.02,WSW,249,2.0,5.0,68,0.00,,,0.00,Wunderground v.1.15,2013-02-16 17:18:00,
2013-02-16 12:23:00,29.3,20.7,30.02,West,277,2.0,3.0,70,0.00,,,0.00,Wunderground v.1.15,2013-02-16 17:23:00,
2013-02-16 12:28:00,29.4,20.8,30.02,WNW,294,2.0,6.0,70,0.00,,,0.00,Wunderground v.1.15,2013-02-16 17:28:00,
2013-02-16 12:33:00,28.8,19.9,30.02,NNW,332,3.0,5.0,69,0.00,,,0.00,Wunderground v.1.15,2013-02-16 17:33:00,
2013-02-16 12:39:00,28.3,19.4,30.02,West,275,3.0,3.0,69,0.00,,,0.00,Wunderground v.1.15,2013-02-16 17:39:00,
2013-02-16 12:45:00,29.1,20.2,30.01,SW,217,1.0,3.0,69,0.00,,,0.00,Wunderground v.1.15,2013-02-16 17:45:00,
2013-02-16 12:52:00,29.3,21.1,30.00,SE,128,2.0,2.0,71,0.00,,,0.00,Wunderground v.1.15,2013-02-16 17:52:00,
2013-02-16 12:58:00,30.1,20.5,30.00,NNW,329,3.0,6.0,67,0.00,,,0.00,Wunderground v.1.15,2013-02-16 17:58:00,
2013-02-16 13:03:00,30.0,20.0,30.00,WNW,301,5.0,5.0,66,0.00,,,0.00,Wunderground v.1.15,2013-02-16 18:03:00,
2013-02-16 13:09:00,30.1,19.4,30.00,NNW,336,5.0,6.0,64,0.00,,,0.00,Wunderground v.1.15,2013-02-16 18:09:00,
2013-02-16 13:15:00,30.9,21.2,30.00,NW,317,4.0,5.0,67,0.00,,,0.00,Wunderground v.1.15,2013-02-16 18:15:00,
2013-02-16 13:21:00,30.4,19.3,30.00,WNW,296,5.0,5.0,63,0.00,,,0.00,Wunderground v.1.15,2013-02-16 18:21:00,
2013-02-16 13:26:00,29.7,19.0,30.00,West,271,3.0,5.0,64,0.00,,,0.00,Wunderground v.1.15,2013-02-16 18:26:00,
2013-02-16 13:31:00,29.6,18.9,30.00,NW,321,2.0,2.0,64,0.00,,,0.00,Wunderground v.1.15,2013-02-16 18:31:00,
2013-02-16 13:37:00,29.4,18.3,30.00,NW,325,3.0,8.0,63,0.00,,,0.00,Wunderground v.1.15,2013-02-16 18:37:00,
2013-02-16 13:42:00,29.3,18.6,29.99,NNW,328,4.0,8.0,64,0.00,,,0.00,Wunderground v.1.15,2013-02-16 18:42:00,
2013-02-16 13:48:00,29.2,19.2,29.99,WNW,293,3.0,8.0,66,0.00,,,0.00,Wunderground v.1.15,2013-02-16 18:48:00,
2013-02-16 13:53:00,29.2,19.6,29.99,NNW,331,3.0,8.0,67,0.00,,,0.00,Wunderground v.1.15,2013-02-16 18:53:00,
2013-02-16 13:58:00,29.0,18.7,29.99,NW,321,3.0,8.0,65,0.00,,,0.00,Wunderground v.1.15,2013-02-16 18:58:00,
2013-02-16 14:04:00,28.9,19.0,29.99,NW,313,3.0,6.0,66,0.00,,,0.00,Wunderground v.1.15,2013-02-16 19:04:00,
2013-02-16 14:10:00,28.9,19.0,29.99,NW,323,3.0,5.0,66,0.00,,,0.00,Wunderground v.1.15,2013-02-16 19:10:00,
2013-02-16 14:15:00,28.8,19.2,29.99,NW,319,4.0,5.0,67,0.00,,,0.00,Wunderground v.1.15,2013-02-16 19:15:00,
2013-02-16 14:21:00,28.8,19.2,29.99,NW,322,4.0,5.0,67,0.00,,,0.00,Wunderground v.1.15,2013-02-16 19:21:00,
2013-02-16 14:27:00,28.8,19.2,29.99,NW,326,3.0,5.0,67,0.00,,,0.00,Wunderground v.1.15,2013-02-16 19:27:00,
2013-02-16 14:32:00,28.7,18.8,29.99,WNW,302,4.0,7.0,66,0.00,,,0.00,Wunderground v.1.15,2013-02-16 19:32:00,
2013-02-16 14:37:00,28.7,19.1,29.99,NNW,337,4.0,7.0,67,0.00,,,0.00,Wunderground v.1.15,2013-02-16 19:37:00,
2013-02-16 14:42:00,28.7,19.1,29.99,NW,325,2.0,4.0,67,0.00,,,0.00,Wunderground v.1.15,2013-02-16 19:42:00,
2013-02-16 14:48:00,28.8,18.9,29.99,NW,313,2.0,4.0,66,0.00,,,0.00,Wunderground v.1.15,2013-02-16 19:48:00,
2013-02-16 14:55:00,28.9,19.3,29.99,NW,311,3.0,5.0,67,0.00,,,0.00,Wunderground v.1.15,2013-02-16 19:55:00,
2013-02-16 15:00:00,28.8,19.2,29.99,WNW,294,3.0,3.0,67,0.00,,,0.00,Wunderground v.1.15,2013-02-16 20:00:00,
2013-02-16 15:06:00,28.7,18.4,29.99,West,275,3.0,3.0,65,0.00,,,0.00,Wunderground v.1.15,2013-02-16 20:06:00,
2013-02-16 15:12:00,28.8,18.9,29.99,WNW,296,2.0,2.0,66,0.00,,,0.00,Wunderground v.1.15,2013-02-16 20:12:00,
2013-02-16 15:17:00,28.9,18.6,29.99,NW,313,2.0,2.0,65,0.00,,,0.00,Wunderground v.1.15,2013-02-16 20:17:00,
2013-02-16 15:23:00,29.1,19.5,29.99,WNW,302,3.0,4.0,67,0.00,,,0.00,Wunderground v.1.15,2013-02-16 20:23:00,
2013-02-16 15:28:00,29.2,18.9,29.99,NW,311,3.0,4.0,65,0.00,,,0.00,Wunderground v.1.15,2013-02-16 20:28:00,
2013-02-16 15:33:00,29.1,19.2,29.99,NW,307,3.0,4.0,66,0.00,,,0.00,Wunderground v.1.15,2013-02-16 20:33:00,
2013-02-16 15:38:00,28.9,18.6,29.99,WNW,286,3.0,4.0,65,0.00,,,0.00,Wunderground v.1.15,2013-02-16 20:38:00,
2013-02-16 15:44:00,28.8,18.9,29.99,NW,314,3.0,6.0,66,0.00,,,0.00,Wunderground v.1.15,2013-02-16 20:44:00,
2013-02-16 15:50:00,28.8,18.9,29.99,NW,319,4.0,6.0,66,0.00,,,0.00,Wunderground v.1.15,2013-02-16 20:50:00,
2013-02-16 15:55:00,28.7,18.4,29.99,NW,323,4.0,5.0,65,0.00,,,0.00,Wunderground v.1.15,2013-02-16 20:55:00,
2013-02-16 16:01:00,28.6,18.3,30.00,NW,320,2.0,5.0,65,0.00,,,0.00,Wunderground v.1.15,2013-02-16 21:01:00,
2013-02-16 16:06:00,28.9,18.6,30.00,NW,307,3.0,5.0,65,0.00,,,0.00,Wunderground v.1.15,2013-02-16 21:06:00,
2013-02-16 16:11:00,29.1,18.4,29.99,NW,310,3.0,3.0,64,0.00,,,0.00,Wunderground v.1.15,2013-02-16 21:11:00,
2013-02-16 16:16:00,29.0,17.6,30.00,NNW,329,3.0,5.0,62,0.00,,,0.00,Wunderground v.1.15,2013-02-16 21:16:00,
2013-02-16 16:22:00,28.9,17.9,30.00,NW,323,2.0,3.0,63,0.00,,,0.00,Wunderground v.1.15,2013-02-16 21:22:00,
2013-02-16 16:27:00,28.8,17.8,30.00,NW,314,2.0,5.0,63,0.00,,,0.00,Wunderground v.1.15,2013-02-16 21:27:00,
2013-02-16 16:33:00,28.7,18.1,30.00,SW,232,2.0,7.0,64,0.00,,,0.00,Wunderground v.1.15,2013-02-16 21:33:00,
2013-02-16 16:38:00,28.6,18.3,30.00,West,268,3.0,7.0,65,0.00,,,0.00,Wunderground v.1.15,2013-02-16 21:38:00,
2013-02-16 16:43:00,28.5,17.9,30.00,SW,215,3.0,7.0,64,0.00,,,0.00,Wunderground v.1.15,2013-02-16 21:43:00,
2013-02-16 16:49:00,28.3,17.7,30.00,West,276,3.0,7.0,64,0.00,,,0.00,Wunderground v.1.15,2013-02-16 21:49:00,
2013-02-16 16:55:00,28.1,17.8,30.00,WNW,302,2.0,7.0,65,0.00,,,0.00,Wunderground v.1.15,2013-02-16 21:55:00,
2013-02-16 17:00:00,28.0,19.8,30.00,NW,326,2.0,5.0,71,0.00,,,0.00,Wunderground v.1.15,2013-02-16 22:00:00,
2013-02-16 17:06:00,27.9,18.0,30.00,NW,307,3.0,7.0,66,0.00,,,0.00,Wunderground v.1.15,2013-02-16 22:06:00,
2013-02-16 17:12:00,27.8,17.9,30.00,NW,326,3.0,3.0,66,0.00,,,0.00,Wunderground v.1.15,2013-02-16 22:12:00,
2013-02-16 17:17:00,27.7,17.5,30.00,WNW,284,3.0,5.0,65,0.00,,,0.00,Wunderground v.1.15,2013-02-16 22:17:00,
2013-02-16 17:22:00,27.6,17.7,30.00,NW,312,2.0,3.0,66,0.00,,,0.00,Wunderground v.1.15,2013-02-16 22:22:00,
2013-02-16 17:27:00,27.6,17.7,30.00,NW,319,2.0,3.0,66,0.00,,,0.00,Wunderground v.1.15,2013-02-16 22:27:00,
2013-02-16 17:32:00,27.5,17.6,30.00,NW,323,2.0,7.0,66,0.00,,,0.00,Wunderground v.1.15,2013-02-16 22:32:00,
2013-02-16 17:38:00,27.4,17.5,30.00,NW,307,4.0,7.0,66,0.00,,,0.00,Wunderground v.1.15,2013-02-16 22:38:00,
2013-02-16 17:43:00,27.2,17.7,30.00,NW,324,3.0,4.0,67,0.00,,,0.00,Wunderground v.1.15,2013-02-16 22:43:00,
2013-02-16 17:48:00,27.1,17.6,30.00,NNW,328,4.0,4.0,67,0.00,,,0.00,Wunderground v.1.15,2013-02-16 22:48:00,
2013-02-16 17:53:00,27.0,17.8,30.01,NW,309,4.0,5.0,68,0.00,,,0.00,Wunderground v.1.15,2013-02-16 22:53:00,
2013-02-16 17:58:00,27.0,18.2,30.00,NNW,327,3.0,3.0,69,0.00,,,0.00,Wunderground v.1.15,2013-02-16 22:58:00,
2013-02-16 18:04:00,26.8,18.0,30.01,NNW,329,2.0,3.0,69,0.00,,,0.00,Wunderground v.1.15,2013-02-16 23:04:00,
2013-02-16 18:10:00,26.7,17.9,30.01,NNW,328,1.0,3.0,69,0.00,,,0.00,Wunderground v.1.15,2013-02-16 23:10:00,
2013-02-16 18:15:00,26.4,17.9,30.01,NNW,329,0.0,1.0,70,0.00,,,0.00,Wunderground v.1.15,2013-02-16 23:15:00,
2013-02-16 18:20:00,26.1,18.0,30.01,NNW,329,0.0,0.0,71,0.00,,,0.00,Wunderground v.1.15,2013-02-16 23:20:00,
2013-02-16 18:25:00,25.8,18.3,30.01,NNW,329,0.0,0.0,73,0.00,,,0.00,Wunderground v.1.15,2013-02-16 23:25:00,
2013-02-16 18:31:00,25.5,18.0,30.01,NNW,329,0.0,9.0,73,0.00,,,0.00,Wunderground v.1.15,2013-02-16 23:31:00,
2013-02-16 18:37:00,25.0,17.9,30.01,NNW,329,0.0,9.0,74,0.00,,,0.00,Wunderground v.1.15,2013-02-16 23:37:00,
2013-02-16 18:42:00,24.8,18.0,30.01,NNW,329,0.0,9.0,75,0.00,,,0.00,Wunderground v.1.15,2013-02-16 23:42:00,
2013-02-16 18:47:00,24.4,17.9,30.01,NNW,329,0.0,9.0,76,0.00,,,0.00,Wunderground v.1.15,2013-02-16 23:47:00,
2013-02-16 18:52:00,24.1,17.6,30.01,NNW,328,0.0,9.0,76,0.00,,,0.00,Wunderground v.1.15,2013-02-16 23:52:00,
2013-02-16 18:58:00,23.6,17.7,30.01,NNW,329,0.0,9.0,78,0.00,,,0.00,Wunderground v.1.15,2013-02-16 23:58:00,
2013-02-16 19:03:00,23.2,17.4,30.01,NNW,329,0.0,0.0,78,0.00,,,0.00,Wunderground v.1.15,2013-02-17 00:03:00,
2013-02-16 19:09:00,22.7,17.2,30.01,NNW,328,0.0,0.0,79,0.00,,,0.00,Wunderground v.1.15,2013-02-17 00:09:00,
2013-02-16 19:15:00,22.1,16.9,30.01,NNW,329,0.0,0.0,80,0.00,,,0.00,Wunderground v.1.15,2013-02-17 00:15:00,
2013-02-16 19:21:00,21.7,16.8,30.01,NNW,329,0.0,0.0,81,0.00,,,0.00,Wunderground v.1.15,2013-02-17 00:21:00,
2013-02-16 19:29:00,21.3,16.7,30.01,NNW,329,0.0,0.0,82,0.00,,,0.00,Wunderground v.1.15,2013-02-17 00:29:00,
2013-02-16 19:34:00,21.0,16.4,30.00,NNW,329,0.0,0.0,82,0.00,,,0.00,Wunderground v.1.15,2013-02-17 00:34:00,
2013-02-16 19:40:00,20.8,16.5,30.01,NNW,328,0.0,0.0,83,0.00,,,0.00,Wunderground v.1.15,2013-02-17 00:40:00,
2013-02-16 19:45:00,20.5,16.2,30.00,NNW,329,0.0,0.0,83,0.00,,,0.00,Wunderground v.1.15,2013-02-17 00:45:00,
2013-02-16 19:51:00,20.3,16.0,30.00,NNW,329,0.0,0.0,83,0.00,,,0.00,Wunderground v.1.15,2013-02-17 00:51:00,
2013-02-16 19:56:00,19.9,15.8,30.00,NNW,329,0.0,0.0,84,0.00,,,0.00,Wunderground v.1.15,2013-02-17 00:56:00,
2013-02-16 20:03:00,19.7,15.6,30.00,NNW,329,0.0,0.0,84,0.00,,,0.00,Wunderground v.1.15,2013-02-17 01:03:00,
2013-02-16 20:09:00,19.4,15.6,30.00,NNW,329,0.0,0.0,85,0.00,,,0.00,Wunderground v.1.15,2013-02-17 01:09:00,
2013-02-16 20:14:00,19.3,15.8,30.00,NNW,327,0.0,0.0,86,0.00,,,0.00,Wunderground v.1.15,2013-02-17 01:14:00,
2013-02-16 20:19:00,19.1,15.6,30.00,NNW,328,0.0,0.0,86,0.00,,,0.00,Wunderground v.1.15,2013-02-17 01:19:00,
2013-02-16 20:25:00,19.0,15.5,30.00,NNW,328,0.0,0.0,86,0.00,,,0.00,Wunderground v.1.15,2013-02-17 01:25:00,
2013-02-16 20:31:00,18.9,15.7,29.99,NNW,329,0.0,0.0,87,0.00,,,0.00,Wunderground v.1.15,2013-02-17 01:31:00,
2013-02-16 20:36:00,18.9,15.7,29.99,NNW,328,0.0,0.0,87,0.00,,,0.00,Wunderground v.1.15,2013-02-17 01:36:00,
2013-02-16 20:41:00,18.7,15.5,29.99,NNW,329,0.0,0.0,87,0.00,,,0.00,Wunderground v.1.15,2013-02-17 01:41:00,
2013-02-16 20:46:00,18.5,15.3,30.00,NNW,329,0.0,0.0,87,0.00,,,0.00,Wunderground v.1.15,2013-02-17 01:46:00,
2013-02-16 20:51:00,18.4,15.2,29.99,NNW,328,0.0,0.0,87,0.00,,,0.00,Wunderground v.1.15,2013-02-17 01:51:00,
2013-02-16 20:57:00,18.2,15.0,30.00,NNW,329,0.0,0.0,87,0.00,,,0.00,Wunderground v.1.15,2013-02-17 01:57:00,
2013-02-16 21:03:00,18.0,15.0,30.00,NNW,328,0.0,0.0,88,0.00,,,0.00,Wunderground v.1.15,2013-02-17 02:03:00,
2013-02-16 21:09:00,18.0,15.0,29.99,NNW,328,0.0,0.0,88,0.00,,,0.00,Wunderground v.1.15,2013-02-17 02:09:00,
2013-02-16 21:15:00,17.9,14.9,29.99,NNW,329,0.0,0.0,88,0.00,,,0.00,Wunderground v.1.15,2013-02-17 02:15:00,
2013-02-16 21:20:00,17.9,14.9,29.99,NNW,328,0.0,0.0,88,0.00,,,0.00,Wunderground v.1.15,2013-02-17 02:20:00,
2013-02-16 21:25:00,17.9,15.2,30.00,NNW,329,0.0,0.0,89,0.00,,,0.00,Wunderground v.1.15,2013-02-17 02:25:00,
2013-02-16 21:30:00,17.9,15.2,30.00,NNW,328,0.0,1.0,89,0.00,,,0.00,Wunderground v.1.15,2013-02-17 02:30:00,
2013-02-16 21:36:00,18.1,15.4,30.00,NW,319,1.0,3.0,89,0.00,,,0.00,Wunderground v.1.15,2013-02-17 02:36:00,
2013-02-16 21:41:00,18.7,16.3,30.00,NW,311,2.0,4.0,90,0.00,,,0.00,Wunderground v.1.15,2013-02-17 02:41:00,
2013-02-16 21:47:00,20.1,17.9,30.00,NW,323,3.0,3.0,91,0.00,,,0.00,Wunderground v.1.15,2013-02-17 02:47:00,
2013-02-16 21:53:00,21.2,19.0,30.00,WNW,291,3.0,5.0,91,0.00,,,0.00,Wunderground v.1.15,2013-02-17 02:53:00,
2013-02-16 21:58:00,21.8,19.6,30.00,NW,307,3.0,3.0,91,0.00,,,0.00,Wunderground v.1.15,2013-02-17 02:58:00,
2013-02-16 22:03:00,22.0,19.5,30.00,NW,317,3.0,3.0,90,0.00,,,0.00,Wunderground v.1.15,2013-02-17 03:03:00,
2013-02-16 22:10:00,22.2,19.7,30.00,NW,315,3.0,3.0,90,0.00,,,0.00,Wunderground v.1.15,2013-02-17 03:10:00,
2013-02-16 22:15:00,22.3,19.8,30.00,NW,307,2.0,3.0,90,0.00,,,0.00,Wunderground v.1.15,2013-02-17 03:15:00,
2013-02-16 22:20:00,22.5,19.7,30.00,NW,308,3.0,6.0,89,0.00,,,0.00,Wunderground v.1.15,2013-02-17 03:20:00,
2013-02-16 22:25:00,22.6,19.8,29.99,WNW,287,3.0,6.0,89,0.00,,,0.00,Wunderground v.1.15,2013-02-17 03:25:00,
2013-02-16 22:30:00,22.6,19.6,29.99,WNW,288,3.0,3.0,88,0.00,,,0.00,Wunderground v.1.15,2013-02-17 03:30:00,
2013-02-16 22:36:00,22.6,19.6,29.99,WNW,302,2.0,3.0,88,0.00,,,0.00,Wunderground v.1.15,2013-02-17 03:36:00,
2013-02-16 22:42:00,22.6,19.6,29.99,NW,310,1.0,3.0,88,0.00,,,0.00,Wunderground v.1.15,2013-02-17 03:42:00,
2013-02-16 22:47:00,22.5,19.2,29.99,NW,313,2.0,3.0,87,0.00,,,0.00,Wunderground v.1.15,2013-02-17 03:47:00,
2013-02-16 22:52:00,22.5,19.2,29.98,NNW,327,2.0,2.0,87,0.00,,,0.00,Wunderground v.1.15,2013-02-17 03:52:00,
2013-02-16 22:57:00,22.5,19.2,29.99,West,279,2.0,8.0,87,0.00,,,0.00,Wunderground v.1.15,2013-02-17 03:57:00,
2013-02-16 23:02:00,22.4,18.8,29.99,West,273,4.0,8.0,86,0.00,,,0.00,Wunderground v.1.15,2013-02-17 04:02:00,
2013-02-16 23:07:00,22.5,18.7,29.99,WNW,303,3.0,8.0,85,0.00,,,0.00,Wunderground v.1.15,2013-02-17 04:07:00,
2013-02-16 23:13:00,22.5,18.7,29.99,West,279,3.0,5.0,85,0.00,,,0.00,Wunderground v.1.15,2013-02-17 04:13:00,
2013-02-16 23:19:00,22.6,18.8,29.98,NNW,329,3.0,7.0,85,0.00,,,0.00,Wunderground v.1.15,2013-02-17 04:19:00,
2013-02-16 23:25:00,22.6,18.5,29.99,NNW,333,3.0,5.0,84,0.00,,,0.00,Wunderground v.1.15,2013-02-17 04:25:00,
2013-02-16 23:30:00,22.6,18.5,29.99,WNW,294,3.0,5.0,84,0.00,,,0.00,Wunderground v.1.15,2013-02-17 04:30:00,
2013-02-16 23:35:00,22.6,18.5,29.99,NW,309,2.0,8.0,84,0.00,,,0.00,Wunderground v.1.15,2013-02-17 04:35:00,
2013-02-16 23:40:00,22.6,18.5,29.99,WNW,303,3.0,3.0,84,0.00,,,0.00,Wunderground v.1.15,2013-02-17 04:40:00,
2013-02-16 23:45:00,22.6,18.5,29.99,NNW,331,4.0,8.0,84,0.00,,,0.00,Wunderground v.1.15,2013-02-17 04:45:00,
2013-02-16 23:50:00,22.5,18.1,29.99,West,272,4.0,8.0,83,0.00,,,0.00,Wunderground v.1.15,2013-02-17 04:50:00,
2013-02-16 23:56:00,22.3,17.9,29.99,NW,311,3.0,8.0,83,0.00,,,0.00,Wunderground v.1.15,2013-02-17 04:56:00,